Time;durP1;ratioP1;P1;durP2;ratioP2;P2;SDS_P1;SDS_P2;PMS_P1;PMS_P2;Temp;Humidity;BMP_temperature;BMP_pressure;BME280_temperature;BME280_humidity;BME280_pressure;Samples;Min_cycle;Max_cycle;Signal;HPM_P1;HPM_P2
2023/09/10 00:02:10;;;;;;;;;29.25;28.25;;;;;18.65;64.49;100053.88;5096080;28;8851;-58
2023/09/10 00:04:38;;;;;;;;;27.50;26.00;;;;;18.62;64.97;100051.53;5096148;28;8841;-56
2023/09/10 00:07:08;;;;;;;;;25.75;22.75;;;;;18.59;64.68;100051.84;5096209;28;8833;-58
2023/09/10 00:09:36;;;;;;;;;27.50;27.00;;;;;18.59;64.98;100064.53;5094850;28;8825;-57
2023/09/10 00:12:04;;;;;;;;;30.00;28.50;;;;;18.57;64.75;100056.59;5096023;28;8930;-57
2023/09/10 00:14:33;;;;;;;;;25.00;24.00;;;;;18.57;64.38;100058.44;5095857;28;8824;-57
2023/09/10 00:17:00;;;;;;;;;24.25;22.50;;;;;18.57;64.94;100055.72;5096015;28;8901;-57
2023/09/10 00:19:28;;;;;;;;;31.00;30.00;;;;;18.58;64.88;100054.75;5096728;28;8833;-57
2023/09/10 00:21:56;;;;;;;;;32.50;30.00;;;;;18.56;64.72;100049.50;5095427;28;8853;-57
2023/09/10 00:24:23;;;;;;;;;27.75;25.00;;;;;18.58;64.21;100055.56;5095213;28;9545;-57
2023/09/10 00:26:51;;;;;;;;;44.75;42.25;;;;;18.59;64.31;100059.13;5095799;28;9546;-58
2023/09/10 00:29:19;;;;;;;;;60.25;50.75;;;;;18.57;64.48;100051.19;5095420;28;8849;-57
2023/09/10 00:31:46;;;;;;;;;65.00;55.00;;;;;18.57;64.57;100044.94;5095723;28;8821;-58
2023/09/10 00:34:14;;;;;;;;;58.75;49.50;;;;;18.57;64.75;100050.34;5095792;28;8848;-59
2023/09/10 00:36:42;;;;;;;;;47.50;45.00;;;;;18.58;64.93;100047.47;5095703;28;8849;-57
2023/09/10 00:39:09;;;;;;;;;39.50;36.25;;;;;18.58;64.79;100046.66;5096300;28;8836;-58
2023/09/10 00:41:37;;;;;;;;;33.00;30.00;;;;;18.56;64.81;100049.50;5095526;28;8821;-57
2023/09/10 00:44:05;;;;;;;;;24.75;23.25;;;;;18.54;64.62;100046.16;5095483;28;8829;-57
2023/09/10 00:46:33;;;;;;;;;28.00;24.25;;;;;18.49;64.59;100044.94;5095653;28;8953;-57
2023/09/10 00:49:00;;;;;;;;;29.50;28.00;;;;;18.41;65.24;100055.75;5095518;28;8956;-56
2023/09/10 00:51:28;;;;;;;;;24.00;22.33;;;;;18.32;65.74;100046.81;5095493;28;8840;-58
2023/09/10 00:53:56;;;;;;;;;27.75;25.00;;;;;18.26;65.38;100050.16;5096496;28;8825;-59
2023/09/10 00:56:24;;;;;;;;;24.75;23.25;;;;;18.22;65.48;100050.66;5095358;28;8867;-59
2023/09/10 00:58:53;;;;;;;;;27.75;25.00;;;;;18.17;65.63;100051.16;5095573;28;8929;-58
2023/09/10 01:01:20;;;;;;;;;25.00;22.00;;;;;18.12;65.96;100045.44;5095604;28;8833;-57
2023/09/10 01:03:48;;;;;;;;;29.00;28.00;;;;;18.08;65.57;100043.25;5095678;28;8984;-59
2023/09/10 01:06:15;;;;;;;;;30.00;29.50;;;;;18.06;65.58;100045.25;5095612;28;8829;-57
2023/09/10 01:08:43;;;;;;;;;33.00;32.00;;;;;18.04;65.63;100050.81;5095381;28;8888;-57
2023/09/10 01:11:11;;;;;;;;;30.75;29.00;;;;;18.02;65.45;100042.06;5095462;28;8901;-59
2023/09/10 01:13:40;;;;;;;;;31.25;28.25;;;;;18.01;65.75;100042.22;5095428;28;9502;-59
2023/09/10 01:16:07;;;;;;;;;32.00;30.00;;;;;18.00;65.96;100045.94;5095319;28;8954;-57
2023/09/10 01:18:35;;;;;;;;;27.25;25.50;;;;;18.00;65.54;100049.44;5095587;28;8837;-57
2023/09/10 01:21:03;;;;;;;;;27.50;27.00;;;;;17.99;66.05;100047.75;5094468;28;8829;-57
2023/09/10 01:23:30;;;;;;;;;31.00;29.00;;;;;18.00;66.19;100051.31;5094623;28;8845;-57
2023/09/10 01:25:58;;;;;;;;;30.75;28.00;;;;;18.00;65.59;100044.06;5094198;28;9565;-57
2023/09/10 01:28:26;;;;;;;;;33.75;31.50;;;;;18.03;65.41;100048.28;5094211;28;8888;-56
2023/09/10 01:30:53;;;;;;;;;32.25;31.00;;;;;18.05;65.66;100048.94;5094571;28;9525;-58
2023/09/10 01:33:21;;;;;;;;;35.75;33.25;;;;;18.06;65.82;100042.56;5093801;28;8860;-57
2023/09/10 01:35:49;;;;;;;;;28.25;26.25;;;;;18.06;65.21;100038.00;5094333;28;8871;-57
2023/09/10 01:38:17;;;;;;;;;26.50;24.75;;;;;18.06;65.83;100034.47;5095183;28;8821;-59
2023/09/10 01:40:45;;;;;;;;;18.00;16.50;;;;;18.06;65.80;100040.69;5094871;28;8856;-57
2023/09/10 01:43:12;;;;;;;;;22.75;22.25;;;;;18.04;65.96;100037.34;5094665;28;8963;-57
2023/09/10 01:45:40;;;;;;;;;29.50;27.25;;;;;18.00;65.82;100046.75;5094400;28;8859;-58
2023/09/10 01:48:07;;;;;;;;;31.00;28.00;;;;;17.97;65.96;100046.25;5094641;28;8844;-57
2023/09/10 01:50:35;;;;;;;;;25.50;25.50;;;;;17.93;65.78;100040.34;5093973;28;8843;-58
2023/09/10 01:53:03;;;;;;;;;27.75;24.00;;;;;17.90;65.90;100039.84;5094724;28;8875;-57
2023/09/10 01:55:31;;;;;;;;;26.00;24.00;;;;;17.87;65.93;100030.25;5093348;28;8853;-57
2023/09/10 01:57:59;;;;;;;;;24.00;22.50;;;;;17.84;66.01;100038.66;5093258;28;8829;-57
2023/09/10 02:00:27;;;;;;;;;21.50;21.50;;;;;17.81;66.19;100039.00;5093756;28;8913;-57
2023/09/10 02:02:54;;;;;;;;;30.25;26.25;;;;;17.80;66.59;100037.31;5093337;28;8865;-56
2023/09/10 02:05:22;;;;;;;;;21.75;19.50;;;;;17.77;66.28;100032.22;5093728;28;8841;-57
2023/09/10 02:07:50;;;;;;;;;28.00;26.75;;;;;17.74;66.57;100034.41;5094598;28;8857;-56
2023/09/10 02:10:17;;;;;;;;;31.00;29.00;;;;;17.70;66.14;100033.91;5094623;28;8833;-57
2023/09/10 02:12:45;;;;;;;;;29.00;27.25;;;;;17.66;66.22;100040.63;5093770;28;8828;-56
2023/09/10 02:15:13;;;;;;;;;29.50;27.00;;;;;17.64;66.58;100042.66;5094370;28;8853;-58
2023/09/10 02:17:41;;;;;;;;;30.00;28.50;;;;;17.60;66.52;100049.38;5094120;28;8836;-57
2023/09/10 02:20:12;;;;;;;;;28.50;25.25;;;;;17.58;66.90;100053.22;5094773;28;8910;-57
2023/09/10 02:22:39;;;;;;;;;27.75;26.50;;;;;17.56;66.18;100041.78;5094085;28;8839;-58
2023/09/10 02:25:08;;;;;;;;;29.75;28.75;;;;;17.54;66.68;100043.81;5095310;28;8837;-58
2023/09/10 02:27:36;;;;;;;;;31.00;25.00;;;;;17.52;66.84;100046.66;5094059;28;8841;-56
2023/09/10 02:30:04;;;;;;;;;29.00;27.00;;;;;17.51;66.90;100044.13;5095255;28;8833;-57
2023/09/10 02:32:31;;;;;;;;;28.00;26.25;;;;;17.51;66.53;100033.34;5095531;28;8829;-57
2023/09/10 02:34:59;;;;;;;;;30.00;28.00;;;;;17.52;66.56;100046.66;5097716;28;8851;-59
2023/09/10 02:37:27;;;;;;;;;23.50;22.00;;;;;17.52;66.64;100040.41;5098274;28;8829;-56
2023/09/10 02:39:55;;;;;;;;;30.75;28.50;;;;;17.54;66.39;100043.81;5098535;28;9487;-59
2023/09/10 02:42:23;;;;;;;;;26.00;25.00;;;;;17.53;66.77;100042.94;5098127;28;8859;-59
2023/09/10 02:44:50;;;;;;;;;30.00;28.50;;;;;17.53;66.45;100048.34;5098183;28;8849;-59
2023/09/10 02:47:18;;;;;;;;;31.00;30.50;;;;;17.54;66.41;100055.41;5098621;28;8853;-58
2023/09/10 02:49:45;;;;;;;;;32.25;30.50;;;;;17.53;66.79;100048.34;5098174;28;8833;-59
2023/09/10 02:52:13;;;;;;;;;26.50;24.00;;;;;17.53;66.64;100064.50;5097648;28;8837;-59
2023/09/10 02:54:41;;;;;;;;;30.50;27.50;;;;;17.51;66.55;100050.34;5098516;28;8826;-59
2023/09/10 02:57:08;;;;;;;;;28.25;27.50;;;;;17.53;66.70;100061.81;5097654;28;8837;-59
2023/09/10 02:59:36;;;;;;;;;34.00;31.25;;;;;17.51;66.40;100063.81;5097952;28;8853;-59
2023/09/10 03:02:03;;;;;;;;;44.00;35.25;;;;;17.51;66.78;100054.88;5097459;28;8856;-59
2023/09/10 03:04:31;;;;;;;;;33.75;32.50;;;;;17.50;66.28;100055.91;5097549;28;8837;-57
2023/09/10 03:07:01;;;;;;;;;30.50;29.75;;;;;17.48;66.79;100053.34;5097876;28;8829;-57
2023/09/10 03:09:28;;;;;;;;;26.00;25.00;;;;;17.47;66.90;100053.53;5098357;28;8825;-58
2023/09/10 03:11:56;;;;;;;;;26.50;24.00;;;;;17.45;66.43;100050.19;5097797;28;8821;-58
2023/09/10 03:14:23;;;;;;;;;21.50;21.00;;;;;17.41;66.99;100049.66;5098060;28;8837;-59
2023/09/10 03:16:51;;;;;;;;;32.75;31.75;;;;;17.36;66.71;100051.97;5098038;28;8876;-58
2023/09/10 03:19:19;;;;;;;;;25.50;24.00;;;;;17.35;66.81;100054.78;5098247;28;8911;-59
2023/09/10 03:21:47;;;;;;;;;28.00;26.25;;;;;17.33;66.75;100052.25;5097574;28;8848;-58
2023/09/10 03:24:15;;;;;;;;;31.50;29.75;;;;;17.32;67.04;100058.66;5097860;28;9541;-58
2023/09/10 03:26:43;;;;;;;;;31.25;31.25;;;;;17.32;66.65;100055.94;5097544;28;8821;-59
2023/09/10 03:29:10;;;;;;;;;21.00;18.50;;;;;17.30;67.59;100047.19;5097508;28;8829;-59
2023/09/10 03:31:38;;;;;;;;;18.25;15.25;;;;;17.26;67.31;100051.25;5097685;28;8848;-58
2023/09/10 03:34:06;;;;;;;;;26.00;25.00;;;;;17.21;66.85;100045.50;5097689;28;9580;-58
2023/09/10 03:36:33;;;;;;;;;24.50;23.00;;;;;17.16;67.18;100047.00;5097383;28;8845;-59
2023/09/10 03:39:01;;;;;;;;;26.75;25.25;;;;;17.10;67.83;100045.75;5097366;28;8829;-56
2023/09/10 03:41:29;;;;;;;;;24.75;24.00;;;;;17.03;67.15;100036.66;5097112;28;8841;-59
2023/09/10 03:43:57;;;;;;;;;23.25;21.25;;;;;17.03;67.72;100044.75;5097183;28;8829;-56
2023/09/10 03:46:24;;;;;;;;;25.25;24.75;;;;;17.03;67.25;100052.81;5097320;28;8868;-59
2023/09/10 03:48:52;;;;;;;;;26.50;24.00;;;;;17.02;67.34;100048.41;5097354;28;8821;-59
2023/09/10 03:51:19;;;;;;;;;22.75;20.25;;;;;17.02;67.21;100042.19;5097412;28;8859;-58
2023/09/10 03:53:47;;;;;;;;;27.00;24.00;;;;;17.04;67.23;100048.25;5096528;28;9517;-59
2023/09/10 03:56:14;;;;;;;;;34.25;27.50;;;;;17.05;67.58;100047.25;5095642;28;8860;-57
2023/09/10 03:58:42;;;;;;;;;27.50;27.00;;;;;17.06;67.40;100059.69;5096051;28;8853;-58
2023/09/10 04:01:10;;;;;;;;;31.00;27.00;;;;;17.06;67.30;100057.88;5096077;28;8829;-59
2023/09/10 04:03:37;;;;;;;;;29.25;25.75;;;;;17.05;66.79;100066.94;5096923;28;8906;-59
2023/09/10 04:06:05;;;;;;;;;29.50;28.50;;;;;17.08;67.66;100065.78;5096914;28;8992;-59
2023/09/10 04:08:33;;;;;;;;;36.25;33.50;;;;;17.09;67.28;100065.59;5096487;28;8898;-58
2023/09/10 04:11:01;;;;;;;;;32.00;29.50;;;;;17.10;67.01;100064.59;5097420;28;8914;-57
2023/09/10 04:13:29;;;;;;;;;29.00;26.50;;;;;17.11;67.02;100058.25;5096705;28;8837;-59
2023/09/10 04:15:56;;;;;;;;;30.00;30.00;;;;;17.13;66.97;100066.13;5096901;28;8849;-57
2023/09/10 04:18:24;;;;;;;;;30.75;29.50;;;;;17.14;67.11;100057.03;5096858;28;8906;-57
2023/09/10 04:20:51;;;;;;;;;36.00;28.75;;;;;17.14;67.29;100063.28;5096683;28;8836;-59
2023/09/10 04:23:19;;;;;;;;;32.50;29.00;;;;;17.15;66.94;100064.16;5096373;28;8875;-58
2023/09/10 04:25:47;;;;;;;;;27.25;25.75;;;;;17.14;67.41;100063.28;5096629;28;8860;-58
2023/09/10 04:28:14;;;;;;;;;33.00;30.75;;;;;17.11;67.08;100066.31;5096024;28;8813;-58
2023/09/10 04:30:42;;;;;;;;;28.00;27.25;;;;;17.08;67.87;100069.31;5096233;28;8833;-59
2023/09/10 04:33:11;;;;;;;;;31.50;26.25;;;;;17.08;67.63;100071.16;5095995;28;8837;-59
2023/09/10 04:35:39;;;;;;;;;31.00;25.50;;;;;17.07;67.39;100070.31;5096162;28;8837;-57
2023/09/10 04:38:06;;;;;;;;;23.50;21.50;;;;;17.04;67.75;100073.34;5096183;28;8833;-58
2023/09/10 04:40:34;;;;;;;;;23.00;21.75;;;;;16.99;67.94;100072.97;5096257;28;8968;-56
2023/09/10 04:43:02;;;;;;;;;30.25;27.25;;;;;16.94;67.28;100069.88;5096368;28;8825;-59
2023/09/10 04:45:30;;;;;;;;;26.50;23.50;;;;;16.91;68.11;100070.22;5096233;28;8841;-58
2023/09/10 04:47:57;;;;;;;;;24.50;24.50;;;;;16.89;67.60;100074.94;5096140;28;8825;-58
2023/09/10 04:50:25;;;;;;;;;24.00;23.75;;;;;16.87;67.51;100068.84;5095999;28;8821;-59
2023/09/10 04:52:53;;;;;;;;;23.50;23.00;;;;;16.86;67.62;100069.00;5096048;28;8917;-59
2023/09/10 04:55:21;;;;;;;;;24.00;22.50;;;;;16.84;68.01;100069.16;5095248;28;8979;-58
2023/09/10 04:57:48;;;;;;;;;28.25;26.50;;;;;16.84;67.90;100068.31;5096604;28;8833;-58
2023/09/10 05:00:16;;;;;;;;;27.50;24.25;;;;;16.82;67.55;100067.63;5095581;28;8832;-57
2023/09/10 05:02:43;;;;;;;;;28.75;26.75;;;;;16.81;67.96;100069.50;5095900;28;8825;-59
2023/09/10 05:05:14;;;;;;;;;28.00;23.50;;;;;16.79;68.00;100068.78;5095768;28;8955;-57
2023/09/10 05:07:42;;;;;;;;;21.25;20.75;;;;;16.79;68.06;100067.97;5095296;28;8961;-59
2023/09/10 05:10:10;;;;;;;;;27.75;23.50;;;;;16.77;67.66;100070.78;5095420;28;8845;-59
2023/09/10 05:12:37;;;;;;;;;29.75;26.00;;;;;16.79;67.65;100084.09;5095706;28;8841;-58
2023/09/10 05:15:05;;;;;;;;;25.75;23.00;;;;;16.81;68.06;100076.72;5095592;28;8829;-58
2023/09/10 05:17:32;;;;;;;;;29.00;25.50;;;;;16.82;68.11;100070.31;5094842;28;8860;-58
2023/09/10 05:20:00;;;;;;;;;38.50;33.50;;;;;16.84;67.80;100073.69;5094691;28;8849;-57
2023/09/10 05:22:29;;;;;;;;;73.25;55.25;;;;;16.88;67.48;100072.38;5095125;28;8841;-58
2023/09/10 05:24:56;;;;;;;;;63.00;51.75;;;;;16.90;67.60;100073.91;5095142;28;8852;-58
2023/09/10 05:27:24;;;;;;;;;39.50;35.25;;;;;16.95;67.60;100082.34;5095610;28;8837;-59
2023/09/10 05:29:52;;;;;;;;;33.25;29.25;;;;;16.97;67.41;100077.66;5094977;28;8843;-57
2023/09/10 05:32:20;;;;;;;;;30.00;26.75;;;;;17.00;67.56;100081.88;5094716;28;8821;-58
2023/09/10 05:34:47;;;;;;;;;29.50;27.75;;;;;17.00;67.20;100080.03;5094956;28;8913;-59
2023/09/10 05:37:15;;;;;;;;;28.00;26.25;;;;;17.01;67.61;100079.00;5095121;28;8971;-58
2023/09/10 05:39:43;;;;;;;;;29.00;27.50;;;;;17.03;66.97;100081.56;5094882;28;8837;-57
2023/09/10 05:42:11;;;;;;;;;28.50;27.50;;;;;17.04;67.50;100073.34;5095184;28;8832;-59
2023/09/10 05:44:39;;;;;;;;;24.50;23.00;;;;;17.08;66.89;100077.38;5094819;28;8833;-57
2023/09/10 05:47:07;;;;;;;;;26.25;26.25;;;;;17.11;67.06;100085.16;5095031;28;8855;-59
2023/09/10 05:49:35;;;;;;;;;28.25;26.25;;;;;17.17;67.09;100092.56;5094765;28;8829;-59
2023/09/10 05:52:03;;;;;;;;;40.50;35.50;;;;;17.24;66.63;100090.09;5094563;28;8833;-59
2023/09/10 05:54:30;;;;;;;;;25.00;23.00;;;;;17.31;66.56;100089.28;5094833;28;8956;-58
2023/09/10 05:56:58;;;;;;;;;19.00;18.00;;;;;17.38;66.43;100086.84;5094860;28;8901;-58
2023/09/10 05:59:25;;;;;;;;;31.00;30.00;;;;;17.45;66.28;100088.69;5095202;28;9541;-59
2023/09/10 06:01:54;;;;;;;;;33.50;33.00;;;;;17.53;66.31;100088.72;5094830;28;9479;-58
2023/09/10 06:04:21;;;;;;;;;38.00;33.25;;;;;17.62;65.96;100090.44;5094902;28;8967;-59
2023/09/10 06:06:49;;;;;;;;;30.25;25.75;;;;;17.70;65.82;100090.47;5094736;28;8837;-57
2023/09/10 06:09:17;;;;;;;;;46.25;43.75;;;;;17.78;65.86;100095.88;5098022;28;8805;-59
2023/09/10 06:11:45;;;;;;;;;53.75;46.75;;;;;17.87;65.61;100091.38;5098887;28;8829;-57
2023/09/10 06:14:13;;;;;;;;;62.75;51.00;;;;;17.96;65.58;100093.91;5098960;28;8844;-59
2023/09/10 06:16:40;;;;;;;;;54.00;45.75;;;;;18.05;65.78;100098.31;5098257;28;8902;-57
2023/09/10 06:19:08;;;;;;;;;48.75;44.50;;;;;18.14;65.33;100089.22;5098446;28;8857;-57
2023/09/10 06:21:36;;;;;;;;;46.75;44.50;;;;;18.27;65.11;100094.13;5098179;28;8860;-57
2023/09/10 06:24:04;;;;;;;;;45.00;41.50;;;;;18.41;64.56;100088.09;5098506;28;8833;-59
2023/09/10 06:26:32;;;;;;;;;38.75;35.00;;;;;18.56;64.32;100089.97;5097924;28;8837;-58
2023/09/10 06:28:59;;;;;;;;;36.75;32.50;;;;;18.69;64.55;100093.00;5098837;28;8829;-59
2023/09/10 06:31:27;;;;;;;;;38.25;34.50;;;;;18.79;64.03;100080.19;5098531;28;8844;-59
2023/09/10 06:33:55;;;;;;;;;32.75;30.50;;;;;18.89;63.68;100090.78;5098583;28;8924;-60
2023/09/10 06:36:23;;;;;;;;;30.25;29.00;;;;;18.98;63.85;100087.88;5098099;28;8852;-59
2023/09/10 06:38:51;;;;;;;;;35.00;33.75;;;;;19.06;63.70;100087.88;5098605;28;8822;-60
2023/09/10 06:41:18;;;;;;;;;28.50;28.50;;;;;19.14;63.41;100087.88;5098413;28;8826;-58
2023/09/10 06:43:46;;;;;;;;;30.75;30.25;;;;;19.22;63.70;100096.00;5098388;28;9506;-60
2023/09/10 06:46:14;;;;;;;;;37.00;34.75;;;;;19.27;63.62;100085.47;5098314;28;8860;-60
2023/09/10 06:48:41;;;;;;;;;45.00;42.00;;;;;19.34;63.38;100088.34;5098085;28;8837;-58
2023/09/10 06:51:09;;;;;;;;;39.25;31.75;;;;;19.39;63.68;100089.50;5097994;28;8836;-58
2023/09/10 06:53:37;;;;;;;;;21.50;17.75;;;;;19.47;63.50;100084.06;5098164;28;8873;-58
2023/09/10 06:56:04;;;;;;;;;34.75;32.25;;;;;19.57;62.94;100092.81;5097283;28;8841;-58
2023/09/10 06:58:32;;;;;;;;;40.75;37.25;;;;;19.67;63.15;100095.28;5098223;28;8845;-60
2023/09/10 07:00:59;;;;;;;;;34.50;32.00;;;;;19.75;63.16;100098.81;5097446;28;8829;-58
2023/09/10 07:03:27;;;;;;;;;38.50;33.25;;;;;19.84;62.86;100100.44;5096932;28;8872;-60
2023/09/10 07:05:55;;;;;;;;;39.80;37.20;;;;;19.91;62.64;100098.72;5097512;28;8847;-57
2023/09/10 07:08:23;;;;;;;;;31.50;30.50;;;;;20.00;62.79;100096.78;5097285;28;8836;-59
2023/09/10 07:10:51;;;;;;;;;39.50;37.00;;;;;20.09;62.57;100102.03;5097404;28;8841;-58
2023/09/10 07:13:19;;;;;;;;;39.25;36.25;;;;;20.18;62.32;100092.00;5097588;28;8849;-57
2023/09/10 07:15:47;;;;;;;;;37.75;36.00;;;;;20.26;62.37;100095.47;5097175;28;8849;-58
2023/09/10 07:18:14;;;;;;;;;34.60;32.00;;;;;20.36;61.86;100090.69;5096700;28;8838;-60
2023/09/10 07:20:42;;;;;;;;;33.40;30.00;;;;;20.50;62.03;100091.75;5097003;28;8951;-59
2023/09/10 07:23:10;;;;;;;;;39.80;35.40;;;;;20.61;62.05;100086.75;5097147;28;8853;-59
2023/09/10 07:25:37;;;;;;;;;37.00;33.80;;;;;20.74;61.26;100092.41;5097063;28;8960;-58
2023/09/10 07:28:05;;;;;;;;;30.20;28.20;;;;;20.86;61.67;100085.50;5097232;28;8863;-59
2023/09/10 07:30:33;;;;;;;;;37.60;36.20;;;;;21.00;60.95;100093.69;5097103;28;8817;-58
2023/09/10 07:33:01;;;;;;;;;36.40;33.40;;;;;21.14;60.93;100089.31;5097384;28;8955;-58
2023/09/10 07:35:28;;;;;;;;;36.00;33.20;;;;;21.27;60.46;100089.50;5097024;28;8833;-58
2023/09/10 07:37:56;;;;;;;;;39.20;34.20;;;;;21.39;60.38;100085.28;5096755;28;8906;-58
2023/09/10 07:40:24;;;;;;;;;31.00;27.60;;;;;21.52;59.99;100091.75;5097460;28;8859;-59
2023/09/10 07:42:51;;;;;;;;;35.40;32.40;;;;;21.67;60.33;100097.19;5096730;28;8841;-59
2023/09/10 07:45:19;;;;;;;;;35.80;31.80;;;;;21.81;59.88;100099.91;5096816;28;8922;-58
2023/09/10 07:47:47;;;;;;;;;37.60;35.40;;;;;21.95;59.33;100095.47;5096665;28;8840;-58
2023/09/10 07:50:15;;;;;;;;;37.40;33.20;;;;;22.08;59.35;100095.63;5096654;28;8821;-59
2023/09/10 07:52:43;;;;;;;;;35.00;34.80;;;;;22.22;59.42;100097.41;5096340;28;8821;-59
2023/09/10 07:55:13;;;;;;;;;38.20;36.20;;;;;22.35;58.83;100109.28;5095938;28;8845;-58
2023/09/10 07:57:41;;;;;;;;;31.40;30.80;;;;;22.47;59.23;100098.78;5095908;28;8844;-59
2023/09/10 08:00:10;;;;;;;;;38.60;34.40;;;;;22.59;59.13;100092.63;5096025;28;8859;-58
2023/09/10 08:02:37;;;;;;;;;37.20;36.60;;;;;22.73;58.84;100108.00;5096059;28;8841;-59
2023/09/10 08:05:05;;;;;;;;;38.00;37.00;;;;;22.82;58.74;100112.25;5096138;28;8910;-59
2023/09/10 08:07:33;;;;;;;;;41.60;39.40;;;;;22.93;58.61;100097.31;5095949;28;8851;-59
2023/09/10 08:10:01;;;;;;;;;37.80;33.40;;;;;23.03;58.37;100103.22;5096735;28;8817;-59
2023/09/10 08:12:29;;;;;;;;;34.60;30.60;;;;;23.12;58.32;100107.47;5096198;28;8829;-59
2023/09/10 08:14:57;;;;;;;;;40.80;36.80;;;;;23.22;58.41;100108.00;5095912;28;8913;-58
2023/09/10 08:17:25;;;;;;;;;32.00;32.00;;;;;23.29;57.63;100103.47;5095820;28;8861;-58
2023/09/10 08:19:52;;;;;;;;;37.00;35.40;;;;;23.38;58.06;100111.25;5095595;28;8844;-58
2023/09/10 08:22:20;;;;;;;;;37.60;35.60;;;;;23.50;57.54;100111.50;5094834;28;8898;-58
2023/09/10 08:24:48;;;;;;;;;34.60;32.80;;;;;23.60;57.79;100103.84;5095019;28;8864;-60
2023/09/10 08:27:16;;;;;;;;;35.00;33.60;;;;;23.74;57.16;100108.31;5096033;28;8851;-58
2023/09/10 08:29:44;;;;;;;;;33.00;31.20;;;;;23.89;57.39;100100.88;5095786;28;8837;-58
2023/09/10 08:32:12;;;;;;;;;34.00;32.20;;;;;24.02;57.17;100103.63;5094736;28;8914;-59
2023/09/10 08:34:44;;;;;;;;;35.00;33.80;;;;;24.15;57.19;100100.97;5095536;28;8837;-59
2023/09/10 08:37:12;;;;;;;;;43.40;37.20;;;;;24.29;56.49;100098.09;5096765;28;8832;-59
2023/09/10 08:39:40;;;;;;;;;35.60;30.80;;;;;24.42;56.46;100105.44;5095296;28;8955;-58
2023/09/10 08:42:08;;;;;;;;;33.40;32.60;;;;;24.56;55.99;100099.00;5096255;28;8829;-59
2023/09/10 08:44:36;;;;;;;;;34.40;33.00;;;;;24.71;56.06;100103.19;5094678;28;8844;-59
2023/09/10 08:47:03;;;;;;;;;36.60;34.40;;;;;24.88;55.47;100104.47;5094776;28;8856;-58
2023/09/10 08:49:32;;;;;;;;;35.00;33.40;;;;;25.04;55.13;100103.22;5095354;28;8963;-59
2023/09/10 08:52:00;;;;;;;;;35.40;30.60;;;;;25.18;55.20;100102.16;5095308;28;9509;-58
2023/09/10 08:54:27;;;;;;;;;39.80;35.20;;;;;25.31;55.48;100102.16;5095238;28;8914;-59
2023/09/10 08:56:55;;;;;;;;;32.40;30.20;;;;;25.43;55.00;100097.72;5094729;28;8843;-60
2023/09/10 08:59:23;;;;;;;;;37.60;35.80;;;;;25.56;55.02;100105.88;5093191;28;8906;-59
2023/09/10 09:01:52;;;;;;;;;35.40;33.80;;;;;25.68;54.60;100094.94;5093915;28;8833;-58
2023/09/10 09:04:20;;;;;;;;;30.20;29.40;;;;;25.82;54.60;100093.00;5094555;28;8837;-61
2023/09/10 09:06:49;;;;;;;;;33.00;32.40;;;;;25.96;54.74;100100.94;5094748;28;8841;-58
2023/09/10 09:09:18;;;;;;;;;36.00;33.40;;;;;26.10;54.59;100097.09;5094218;28;8841;-60
2023/09/10 09:11:45;;;;;;;;;32.20;29.00;;;;;26.23;54.46;100096.19;5095358;28;8836;-59
2023/09/10 09:14:14;;;;;;;;;33.40;32.00;;;;;26.35;53.57;100092.53;5094652;28;8960;-59
2023/09/10 09:16:45;;;;;;;;;30.20;28.80;;;;;26.48;53.74;100086.97;5095070;28;8849;-58
2023/09/10 09:19:13;;;;;;;;;25.80;25.80;;;;;26.65;54.01;100096.34;5095137;28;8859;-60
2023/09/10 09:21:41;;;;;;;;;22.00;20.20;;;;;26.91;53.24;100081.63;5094724;28;8911;-60
2023/09/10 09:24:08;;;;;;;;;31.00;30.60;;;;;27.14;53.27;100090.94;5093656;28;8814;-58
2023/09/10 09:26:36;;;;;;;;;24.00;23.80;;;;;27.29;52.51;100094.16;5095415;28;8826;-59
2023/09/10 09:29:04;;;;;;;;;25.00;23.80;;;;;27.40;52.57;100087.91;5094872;28;8833;-58
2023/09/10 09:31:32;;;;;;;;;28.20;28.00;;;;;27.51;52.46;100087.19;5094895;28;8908;-60
2023/09/10 09:34:00;;;;;;;;;36.20;34.00;;;;;27.60;52.64;100085.81;5094924;28;8844;-59
2023/09/10 09:36:29;;;;;;;;;28.60;24.00;;;;;27.67;52.54;100080.25;5094583;28;8922;-59
2023/09/10 09:38:57;;;;;;;;;22.60;22.40;;;;;27.71;52.02;100076.00;5094474;28;8914;-59
2023/09/10 09:41:25;;;;;;;;;29.20;28.20;;;;;27.76;52.25;100082.50;5092952;28;8834;-58
2023/09/10 09:43:53;;;;;;;;;26.20;24.20;;;;;27.82;52.26;100078.00;5092973;28;8825;-59
2023/09/10 09:46:21;;;;;;;;;30.80;30.00;;;;;27.91;52.70;100079.38;5093286;28;8822;-58
2023/09/10 09:48:49;;;;;;;;;27.40;25.20;;;;;28.07;52.27;100073.25;5092758;28;8814;-58
2023/09/10 09:51:17;;;;;;;;;28.20;26.80;;;;;28.39;50.96;100075.56;5093407;28;8814;-60
2023/09/10 09:53:45;;;;;;;;;19.40;17.00;;;;;28.88;50.38;100077.94;5093385;28;8826;-58
2023/09/10 09:56:12;;;;;;;;;27.00;26.00;;;;;29.51;49.79;100069.91;5093868;28;8834;-59
2023/09/10 09:58:40;;;;;;;;;21.60;20.40;;;;;30.24;47.98;100074.50;5094032;28;8830;-60
2023/09/10 10:01:08;;;;;;;;;25.40;24.00;;;;;31.07;47.13;100061.69;5093121;28;8951;-60
2023/09/10 10:03:39;;;;;;;;;23.00;23.00;;;;;31.86;46.10;100066.75;5092908;28;8838;-59
2023/09/10 10:06:08;;;;;;;;;22.60;22.00;;;;;32.58;45.21;100057.09;5092676;28;8903;-60
2023/09/10 10:08:37;;;;;;;;;24.00;20.60;;;;;33.26;44.09;100069.03;5093617;28;8857;-60
2023/09/10 10:11:05;;;;;;;;;20.40;20.40;;;;;33.88;43.78;100067.19;5093076;28;8887;-59
2023/09/10 10:13:34;;;;;;;;;20.40;20.40;;;;;34.44;42.83;100059.94;5093320;28;8891;-59
2023/09/10 10:16:01;;;;;;;;;19.00;19.00;;;;;34.92;42.30;100056.66;5092863;28;8858;-58
2023/09/10 10:18:29;;;;;;;;;17.40;15.60;;;;;35.34;41.28;100048.91;5093241;28;8830;-59
2023/09/10 10:21:03;;;;;;;;;19.00;18.40;;;;;35.76;41.40;100043.81;5093069;28;8917;-59
2023/09/10 10:23:31;;;;;;;;;13.20;13.00;;;;;35.96;40.95;100050.13;5092384;28;8857;-60
2023/09/10 10:26:05;;;;;;;;;17.60;17.60;;;;;35.88;41.50;100044.31;5092513;28;8972;-59
2023/09/10 10:28:33;;;;;;;;;16.00;15.00;;;;;35.67;42.52;100051.03;5092877;28;9545;-60
2023/09/10 10:31:01;;;;;;;;;14.80;14.40;;;;;35.53;42.10;100049.94;5092457;28;8903;-61
2023/09/10 10:33:29;;;;;;;;;13.60;13.20;;;;;35.35;43.18;100040.31;5094208;28;8857;-60
2023/09/10 10:35:56;;;;;;;;;13.80;13.20;;;;;35.13;43.62;100042.53;5093375;28;8964;-62
2023/09/10 10:38:24;;;;;;;;;13.60;13.20;;;;;34.87;43.69;100045.63;5093455;28;8826;-60
2023/09/10 10:40:52;;;;;;;;;14.00;13.60;;;;;34.57;44.35;100045.56;5093756;28;8830;-61
2023/09/10 10:43:20;;;;;;;;;15.00;15.00;;;;;34.26;44.36;100046.59;5093498;28;8826;-60
2023/09/10 10:45:48;;;;;;;;;19.00;19.00;;;;;34.04;45.40;100043.22;5093170;28;8870;-59
2023/09/10 10:48:15;;;;;;;;;13.00;13.00;;;;;33.97;45.12;100037.91;5078768;28;8937;-59
2023/09/10 10:50:44;;;;;;;;;22.80;20.00;;;;;33.91;45.33;100039.00;5093091;28;8870;-59
2023/09/10 10:53:13;;;;;;;;;17.20;16.20;;;;;33.80;45.00;100036.47;5092296;28;8861;-59
2023/09/10 10:55:41;;;;;;;;;16.80;15.40;;;;;33.73;45.68;100035.84;5096018;28;8934;-59
2023/09/10 10:58:09;;;;;;;;;18.60;17.80;;;;;33.62;45.44;100034.16;5097580;28;8846;-59
2023/09/10 11:00:37;;;;;;;;;8.00;7.80;;;;;33.53;45.50;100036.59;5095417;28;8833;-59
2023/09/10 11:03:05;;;;;;;;;12.40;12.00;;;;;33.52;45.47;100039.63;5095979;28;8865;-60
2023/09/10 11:05:33;;;;;;;;;12.40;11.60;;;;;33.55;45.26;100028.88;5095006;28;8860;-59
2023/09/10 11:08:01;;;;;;;;;12.00;11.00;;;;;33.62;45.52;100023.94;5096239;28;8900;-59
2023/09/10 11:10:29;;;;;;;;;16.00;15.40;;;;;33.64;45.12;100027.25;5096486;28;8826;-59
2023/09/10 11:12:57;;;;;;;;;11.60;11.60;;;;;33.75;45.15;100022.66;5097256;28;8989;-59
2023/09/10 11:15:25;;;;;;;;;15.20;13.00;;;;;34.03;44.55;100024.94;5096049;28;8845;-59
2023/09/10 11:17:53;;;;;;;;;12.00;11.80;;;;;34.51;42.65;100016.22;5095485;28;8830;-59
2023/09/10 11:20:21;;;;;;;;;12.00;11.60;;;;;35.02;42.48;100006.84;5094249;28;8850;-59